Flight Track Log - Related Links

Times and Time Zones

All times are in EDT time to prevent confusion due to time zone crossing. See the FLG4141 flight status page for this flight to view local times or setup timezone preferences in your user account.

Time Position Orientation Groundspeed Altitude Reporting Facility
EDT Latitude Longitude Course Direction KTS MPH feet Rate Location/Type
Sat 10:54:48 PM 44.8667 -93.1667 157° South 138 159 2,800  Level Minneapolis TRACON
Sat 10:56:08 PM 44.8289 -93.0967 127° Southeast 208 239 4,400 1,872 Climbing Minneapolis Center
Sat 10:57:09 PM 44.7561 -93.0739 167° South 261 300 7,200 2,951 Climbing Minneapolis Center
Sat 10:58:10 PM 44.6839 -93.0511 167° South 263 303 10,400 2,115 Climbing Minneapolis Center
Sat 10:59:11 PM 44.6044 -93.0181 163° South 303 349 11,500 1,289 Climbing Minneapolis Center
Sat 11:00:00 PM 44.3921 -92.9636 157° South  Level Estimated
Sat 11:00:11 PM 44.5192 -92.9753 160° South 322 371 13,000  Level Minneapolis Center
Sat 11:01:12 PM 44.4283 -92.9294 160° South 344 396 14,700 1,623 Climbing Minneapolis Center
Sat 11:02:13 PM 44.3358 -92.8842 161° South 349 402 16,300 1,475 Climbing Minneapolis Center
Sat 11:03:14 PM 44.2433 -92.8392 161° South 351 404 17,700 1,240 Climbing Minneapolis Center
Sat 11:04:14 PM 44.1489 -92.7919 160° South 355 409 18,800 645 Climbing Minneapolis Center
Sat 11:05:15 PM 44.0525 -92.7450 161° South 364 419 19,000 98 Climbing Minneapolis Center
Sat 11:06:16 PM 43.9536 -92.6950 160° South 373 429 19,000  Level Minneapolis Center
Sat 11:07:16 PM 43.8517 -92.6461 161° South 382 440 19,000  Level Minneapolis Center
Sat 11:08:17 PM 43.7442 -92.5928 160° South 390 449 19,000  Level Minneapolis Center
Sat 11:09:18 PM 43.6419 -92.5433 161° South 391 450 19,000  Level Minneapolis Center
Sat 11:10:14 PM 43.5394 -92.4947 161° South 391 450 19,000  Level Chicago Center
Sat 11:11:15 PM 43.4353 -92.4442 161° South 395 455 19,000  Level Chicago Center
Sat 11:12:15 PM 43.3308 -92.3950 161° South 396 456 19,000  Level Chicago Center
Sat 11:13:16 PM 43.2256 -92.3439 161° South 399 459 19,000  Level Chicago Center
Sat 11:14:16 PM 43.1208 -92.2931 160° South 400 460 19,000  Level Chicago Center
Sat 11:15:16 PM 43.0164 -92.2428 161° South 401 461 19,000  Level Chicago Center
Sat 11:16:17 PM 42.8892 -92.1811 160° South 403 464 19,000  Level Chicago Center
Sat 11:17:17 PM 42.7819 -92.1308 161° South 408 470 19,000 -99 Level Chicago Center
Sat 11:18:18 PM 42.6764 -92.0814 161° South 408 470 18,800 -1,339 Descending Chicago Center
Sat 11:19:18 PM 42.5736 -92.0328 161° South 404 465 16,300 -2,479 Descending Chicago Center
Sat 11:20:19 PM 42.4783 -91.9892 161° South 372 428 13,800 -2,430 Descending Chicago Center
Sat 11:21:19 PM 42.3867 -91.9450 160° South 358 412 11,400 -1,800 Descending Chicago Center
Sat 11:22:19 PM 42.3033 -91.9050 160° South 326 375 10,200 -1,388 Descending Chicago Center
Sat 11:23:20 PM 42.2314 -91.8714 161° South 293 337 8,600 -1,636 Descending Chicago Center
Sat 11:24:20 PM 42.1681 -91.8417 161° South 267 307 6,900 -1,700 Descending Chicago Center
Sat 11:25:20 PM 42.1067 -91.8169 163° South 248 285 5,200 -1,587 Descending Chicago Center
Sat 11:26:21 PM 42.0439 -91.8272 187° South 236 272 3,700 -1,140 Descending Chicago Center
Sat 11:27:21 PM 41.9847 -91.8319 183° South 224 258 2,900 -600 Descending Chicago Center
Sat 11:28:21 PM 41.9342 -91.8356 183° South 200 230 2,500 -248 Descending Chicago Center
Sat 11:29:22 PM 41.8858 -91.8258 171° South 178 205 2,400 -446 Descending Chicago Center
Sat 11:30:22 PM 41.8831 -91.7769 94° East 148 170 1,600 -450 Descending Chicago Center
Sat 11:31:22 PM 41.8831 -91.7319 90° East 143 165 1,500 -100 Descending Chicago Center
Sat 11:33:00 PM 41.8847 -91.7108 143° Southeast  Level Estimated

Login

Don't have an account? Register now (free) for customized features, flight alerts, and more!